sensor_id;sensor_type;location;lat;lon;timestamp;P1;durP1;ratioP1;P2;durP2;ratioP2
48522;SDS011;34315;50.150;11.070;2023-04-22T00:01:03;6.88;;;3.80;;
48522;SDS011;34315;50.150;11.070;2023-04-22T00:06:05;6.78;;;4.10;;
48522;SDS011;34315;50.150;11.070;2023-04-22T00:11:06;17.58;;;6.60;;
48522;SDS011;34315;50.150;11.070;2023-04-22T00:16:07;6.47;;;4.00;;
48522;SDS011;34315;50.150;11.070;2023-04-22T00:21:08;11.90;;;4.20;;
48522;SDS011;34315;50.150;11.070;2023-04-22T00:26:10;8.35;;;3.85;;
48522;SDS011;34315;50.150;11.070;2023-04-22T00:31:13;7.05;;;4.40;;
48522;SDS011;34315;50.150;11.070;2023-04-22T00:36:15;6.53;;;3.97;;
48522;SDS011;34315;50.150;11.070;2023-04-22T00:41:16;12.93;;;4.60;;
48522;SDS011;34315;50.150;11.070;2023-04-22T00:46:17;6.25;;;3.78;;
48522;SDS011;34315;50.150;11.070;2023-04-22T00:51:19;5.60;;;3.67;;
48522;SDS011;34315;50.150;11.070;2023-04-22T00:56:20;8.30;;;4.28;;
48522;SDS011;34315;50.150;11.070;2023-04-22T01:01:21;6.95;;;3.38;;
48522;SDS011;34315;50.150;11.070;2023-04-22T01:06:23;7.80;;;3.55;;
48522;SDS011;34315;50.150;11.070;2023-04-22T01:11:24;6.63;;;3.28;;
48522;SDS011;34315;50.150;11.070;2023-04-22T01:16:25;7.25;;;3.25;;
48522;SDS011;34315;50.150;11.070;2023-04-22T01:21:28;8.60;;;4.20;;
48522;SDS011;34315;50.150;11.070;2023-04-22T01:26:33;10.55;;;4.10;;
48522;SDS011;34315;50.150;11.070;2023-04-22T01:31:34;9.52;;;3.95;;
48522;SDS011;34315;50.150;11.070;2023-04-22T01:36:35;8.77;;;3.92;;
48522;SDS011;34315;50.150;11.070;2023-04-22T01:41:36;7.45;;;3.80;;
48522;SDS011;34315;50.150;11.070;2023-04-22T01:46:37;6.35;;;3.75;;
48522;SDS011;34315;50.150;11.070;2023-04-22T01:51:40;8.43;;;4.25;;
48522;SDS011;34315;50.150;11.070;2023-04-22T01:56:41;9.63;;;4.30;;
48522;SDS011;34315;50.150;11.070;2023-04-22T02:01:43;8.40;;;4.18;;
48522;SDS011;34315;50.150;11.070;2023-04-22T02:06:44;7.72;;;3.97;;
48522;SDS011;34315;50.150;11.070;2023-04-22T02:11:46;9.48;;;4.20;;
48522;SDS011;34315;50.150;11.070;2023-04-22T02:16:47;8.00;;;3.67;;
48522;SDS011;34315;50.150;11.070;2023-04-22T02:21:48;8.15;;;4.10;;
48522;SDS011;34315;50.150;11.070;2023-04-22T02:26:49;6.35;;;4.28;;
48522;SDS011;34315;50.150;11.070;2023-04-22T02:31:50;11.07;;;4.03;;
48522;SDS011;34315;50.150;11.070;2023-04-22T02:36:51;7.15;;;3.97;;
48522;SDS011;34315;50.150;11.070;2023-04-22T02:41:53;5.50;;;3.35;;
48522;SDS011;34315;50.150;11.070;2023-04-22T02:46:54;7.18;;;4.10;;
48522;SDS011;34315;50.150;11.070;2023-04-22T02:51:56;6.93;;;3.70;;
48522;SDS011;34315;50.150;11.070;2023-04-22T02:56:57;6.60;;;3.88;;
48522;SDS011;34315;50.150;11.070;2023-04-22T03:01:58;6.32;;;4.15;;
48522;SDS011;34315;50.150;11.070;2023-04-22T03:07:13;7.13;;;3.75;;
48522;SDS011;34315;50.150;11.070;2023-04-22T03:12:15;7.97;;;4.05;;
48522;SDS011;34315;50.150;11.070;2023-04-22T03:17:17;9.00;;;4.40;;
48522;SDS011;34315;50.150;11.070;2023-04-22T03:22:18;10.85;;;4.05;;
48522;SDS011;34315;50.150;11.070;2023-04-22T03:27:20;10.13;;;4.22;;
48522;SDS011;34315;50.150;11.070;2023-04-22T03:32:21;7.47;;;4.28;;
48522;SDS011;34315;50.150;11.070;2023-04-22T03:37:28;10.10;;;4.05;;
48522;SDS011;34315;50.150;11.070;2023-04-22T03:42:30;8.40;;;4.30;;
48522;SDS011;34315;50.150;11.070;2023-04-22T03:47:31;13.73;;;4.05;;
48522;SDS011;34315;50.150;11.070;2023-04-22T03:52:40;6.72;;;3.85;;
48522;SDS011;34315;50.150;11.070;2023-04-22T03:57:41;8.52;;;4.03;;
48522;SDS011;34315;50.150;11.070;2023-04-22T04:02:43;9.15;;;4.38;;
48522;SDS011;34315;50.150;11.070;2023-04-22T04:07:49;9.60;;;3.80;;
48522;SDS011;34315;50.150;11.070;2023-04-22T04:12:50;8.25;;;4.05;;
48522;SDS011;34315;50.150;11.070;2023-04-22T04:17:55;8.98;;;3.90;;
48522;SDS011;34315;50.150;11.070;2023-04-22T04:22:58;9.63;;;4.30;;
48522;SDS011;34315;50.150;11.070;2023-04-22T04:28:00;8.07;;;4.38;;
48522;SDS011;34315;50.150;11.070;2023-04-22T04:33:01;8.02;;;4.65;;
48522;SDS011;34315;50.150;11.070;2023-04-22T04:38:11;39.28;;;20.27;;
48522;SDS011;34315;50.150;11.070;2023-04-22T04:43:14;22.00;;;12.07;;
48522;SDS011;34315;50.150;11.070;2023-04-22T04:48:22;23.45;;;8.77;;
48522;SDS011;34315;50.150;11.070;2023-04-22T04:53:31;9.73;;;5.00;;
48522;SDS011;34315;50.150;11.070;2023-04-22T04:58:32;12.20;;;5.13;;
48522;SDS011;34315;50.150;11.070;2023-04-22T05:03:47;7.63;;;4.10;;
48522;SDS011;34315;50.150;11.070;2023-04-22T05:08:51;6.47;;;4.20;;
48522;SDS011;34315;50.150;11.070;2023-04-22T05:13:53;14.07;;;4.82;;
48522;SDS011;34315;50.150;11.070;2023-04-22T05:19:20;8.15;;;4.38;;
48522;SDS011;34315;50.150;11.070;2023-04-22T05:24:22;7.15;;;4.60;;
48522;SDS011;34315;50.150;11.070;2023-04-22T05:29:24;8.68;;;4.88;;
48522;SDS011;34315;50.150;11.070;2023-04-22T05:34:25;7.03;;;4.25;;
48522;SDS011;34315;50.150;11.070;2023-04-22T05:39:28;10.02;;;4.68;;
48522;SDS011;34315;50.150;11.070;2023-04-22T05:44:32;8.05;;;4.60;;
48522;SDS011;34315;50.150;11.070;2023-04-22T05:49:34;6.53;;;3.95;;
48522;SDS011;34315;50.150;11.070;2023-04-22T05:54:48;7.30;;;4.20;;
48522;SDS011;34315;50.150;11.070;2023-04-22T05:59:49;10.45;;;4.68;;
48522;SDS011;34315;50.150;11.070;2023-04-22T06:04:50;8.40;;;4.50;;
48522;SDS011;34315;50.150;11.070;2023-04-22T06:09:52;9.55;;;4.53;;
48522;SDS011;34315;50.150;11.070;2023-04-22T06:14:53;10.30;;;4.28;;
48522;SDS011;34315;50.150;11.070;2023-04-22T06:19:55;11.02;;;4.95;;
48522;SDS011;34315;50.150;11.070;2023-04-22T06:24:56;10.60;;;4.10;;
48522;SDS011;34315;50.150;11.070;2023-04-22T06:29:57;7.10;;;3.97;;
48522;SDS011;34315;50.150;11.070;2023-04-22T06:34:58;7.18;;;4.00;;
48522;SDS011;34315;50.150;11.070;2023-04-22T06:39:59;8.02;;;3.88;;
48522;SDS011;34315;50.150;11.070;2023-04-22T06:45:19;7.75;;;4.18;;
48522;SDS011;34315;50.150;11.070;2023-04-22T06:50:33;9.80;;;3.97;;
48522;SDS011;34315;50.150;11.070;2023-04-22T06:55:35;8.15;;;4.20;;
48522;SDS011;34315;50.150;11.070;2023-04-22T07:00:36;7.20;;;3.58;;
48522;SDS011;34315;50.150;11.070;2023-04-22T07:05:37;8.30;;;4.22;;
48522;SDS011;34315;50.150;11.070;2023-04-22T07:10:38;7.65;;;4.30;;
48522;SDS011;34315;50.150;11.070;2023-04-22T07:16:01;7.22;;;3.97;;
48522;SDS011;34315;50.150;11.070;2023-04-22T07:21:02;8.80;;;4.15;;
48522;SDS011;34315;50.150;11.070;2023-04-22T07:26:03;8.70;;;4.07;;
48522;SDS011;34315;50.150;11.070;2023-04-22T07:31:04;8.25;;;3.78;;
48522;SDS011;34315;50.150;11.070;2023-04-22T07:36:05;6.90;;;3.50;;
48522;SDS011;34315;50.150;11.070;2023-04-22T07:41:06;8.77;;;3.92;;
48522;SDS011;34315;50.150;11.070;2023-04-22T07:46:08;8.32;;;4.35;;
48522;SDS011;34315;50.150;11.070;2023-04-22T07:51:09;7.97;;;3.78;;
48522;SDS011;34315;50.150;11.070;2023-04-22T07:56:10;8.65;;;4.10;;
48522;SDS011;34315;50.150;11.070;2023-04-22T08:01:11;10.27;;;4.28;;
48522;SDS011;34315;50.150;11.070;2023-04-22T08:06:12;8.75;;;3.90;;
48522;SDS011;34315;50.150;11.070;2023-04-22T08:11:13;8.75;;;3.75;;
48522;SDS011;34315;50.150;11.070;2023-04-22T08:16:14;10.93;;;3.80;;
48522;SDS011;34315;50.150;11.070;2023-04-22T08:21:15;7.85;;;3.58;;
48522;SDS011;34315;50.150;11.070;2023-04-22T08:26:17;6.55;;;3.50;;
48522;SDS011;34315;50.150;11.070;2023-04-22T08:31:18;9.90;;;3.70;;
48522;SDS011;34315;50.150;11.070;2023-04-22T08:36:19;6.20;;;3.20;;
48522;SDS011;34315;50.150;11.070;2023-04-22T08:41:22;8.07;;;3.75;;
48522;SDS011;34315;50.150;11.070;2023-04-22T08:46:26;6.88;;;3.50;;
48522;SDS011;34315;50.150;11.070;2023-04-22T08:51:28;8.13;;;3.60;;
48522;SDS011;34315;50.150;11.070;2023-04-22T08:56:31;10.02;;;3.63;;
48522;SDS011;34315;50.150;11.070;2023-04-22T09:01:33;6.07;;;3.53;;
48522;SDS011;34315;50.150;11.070;2023-04-22T09:06:36;7.20;;;3.33;;
48522;SDS011;34315;50.150;11.070;2023-04-22T09:11:38;7.68;;;3.40;;
48522;SDS011;34315;50.150;11.070;2023-04-22T09:16:40;8.52;;;3.30;;
48522;SDS011;34315;50.150;11.070;2023-04-22T09:21:42;9.63;;;3.13;;
48522;SDS011;34315;50.150;11.070;2023-04-22T09:26:43;5.93;;;3.38;;
48522;SDS011;34315;50.150;11.070;2023-04-22T09:31:48;6.85;;;3.60;;
48522;SDS011;34315;50.150;11.070;2023-04-22T09:36:50;8.00;;;3.60;;
48522;SDS011;34315;50.150;11.070;2023-04-22T09:41:53;5.28;;;3.20;;
48522;SDS011;34315;50.150;11.070;2023-04-22T09:46:54;8.23;;;3.40;;
48522;SDS011;34315;50.150;11.070;2023-04-22T09:51:56;6.22;;;3.30;;
48522;SDS011;34315;50.150;11.070;2023-04-22T09:56:57;7.40;;;3.65;;
48522;SDS011;34315;50.150;11.070;2023-04-22T10:01:59;3.50;;;2.25;;
48522;SDS011;34315;50.150;11.070;2023-04-22T10:07:03;6.57;;;2.65;;
48522;SDS011;34315;50.150;11.070;2023-04-22T10:12:04;5.10;;;2.63;;
48522;SDS011;34315;50.150;11.070;2023-04-22T10:17:05;6.20;;;2.40;;
48522;SDS011;34315;50.150;11.070;2023-04-22T10:22:07;4.63;;;2.20;;
48522;SDS011;34315;50.150;11.070;2023-04-22T10:27:10;4.80;;;2.20;;
48522;SDS011;34315;50.150;11.070;2023-04-22T10:37:19;4.50;;;2.00;;
48522;SDS011;34315;50.150;11.070;2023-04-22T10:42:21;4.85;;;2.40;;
48522;SDS011;34315;50.150;11.070;2023-04-22T10:47:29;7.25;;;2.10;;
48522;SDS011;34315;50.150;11.070;2023-04-22T10:52:34;4.20;;;2.15;;
48522;SDS011;34315;50.150;11.070;2023-04-22T10:57:36;4.53;;;2.33;;
48522;SDS011;34315;50.150;11.070;2023-04-22T11:02:40;5.72;;;2.20;;
48522;SDS011;34315;50.150;11.070;2023-04-22T11:12:47;3.70;;;2.30;;
48522;SDS011;34315;50.150;11.070;2023-04-22T11:17:50;4.50;;;2.30;;
48522;SDS011;34315;50.150;11.070;2023-04-22T11:22:53;5.05;;;2.35;;
48522;SDS011;34315;50.150;11.070;2023-04-22T11:27:55;4.63;;;2.40;;
48522;SDS011;34315;50.150;11.070;2023-04-22T11:32:57;3.75;;;2.13;;
48522;SDS011;34315;50.150;11.070;2023-04-22T11:38:01;7.60;;;2.83;;
48522;SDS011;34315;50.150;11.070;2023-04-22T11:43:03;3.20;;;1.90;;
48522;SDS011;34315;50.150;11.070;2023-04-22T11:48:06;3.72;;;2.17;;
48522;SDS011;34315;50.150;11.070;2023-04-22T11:53:18;4.47;;;2.25;;
48522;SDS011;34315;50.150;11.070;2023-04-22T11:58:24;7.15;;;2.33;;
48522;SDS011;34315;50.150;11.070;2023-04-22T12:03:27;6.00;;;2.35;;
48522;SDS011;34315;50.150;11.070;2023-04-22T12:08:32;5.82;;;2.60;;
48522;SDS011;34315;50.150;11.070;2023-04-22T12:18:41;3.03;;;1.70;;
48522;SDS011;34315;50.150;11.070;2023-04-22T12:23:54;4.25;;;2.22;;
48522;SDS011;34315;50.150;11.070;2023-04-22T12:28:59;4.20;;;2.10;;
48522;SDS011;34315;50.150;11.070;2023-04-22T12:34:00;7.03;;;2.22;;
48522;SDS011;34315;50.150;11.070;2023-04-22T12:39:01;4.15;;;2.17;;
48522;SDS011;34315;50.150;11.070;2023-04-22T12:44:04;5.90;;;2.05;;
48522;SDS011;34315;50.150;11.070;2023-04-22T12:49:05;4.22;;;2.25;;
48522;SDS011;34315;50.150;11.070;2023-04-22T12:54:06;5.05;;;1.85;;
48522;SDS011;34315;50.150;11.070;2023-04-22T12:59:07;6.45;;;2.38;;
48522;SDS011;34315;50.150;11.070;2023-04-22T13:04:09;4.85;;;2.00;;
48522;SDS011;34315;50.150;11.070;2023-04-22T13:09:10;3.60;;;2.20;;
48522;SDS011;34315;50.150;11.070;2023-04-22T13:14:11;4.25;;;2.08;;
48522;SDS011;34315;50.150;11.070;2023-04-22T13:19:12;3.05;;;2.17;;
48522;SDS011;34315;50.150;11.070;2023-04-22T13:24:13;4.72;;;2.00;;
48522;SDS011;34315;50.150;11.070;2023-04-22T13:29:14;3.80;;;2.03;;
48522;SDS011;34315;50.150;11.070;2023-04-22T13:34:16;5.53;;;2.08;;
48522;SDS011;34315;50.150;11.070;2023-04-22T13:39:17;5.47;;;2.03;;
48522;SDS011;34315;50.150;11.070;2023-04-22T13:44:19;4.53;;;2.10;;
48522;SDS011;34315;50.150;11.070;2023-04-22T13:49:20;3.58;;;2.00;;
48522;SDS011;34315;50.150;11.070;2023-04-22T13:54:21;3.65;;;2.00;;
48522;SDS011;34315;50.150;11.070;2023-04-22T13:59:22;8.75;;;2.42;;
48522;SDS011;34315;50.150;11.070;2023-04-22T14:04:23;4.50;;;2.15;;
48522;SDS011;34315;50.150;11.070;2023-04-22T14:09:24;4.13;;;1.98;;
48522;SDS011;34315;50.150;11.070;2023-04-22T14:14:26;13.18;;;3.95;;
48522;SDS011;34315;50.150;11.070;2023-04-22T14:19:27;35.58;;;4.05;;
48522;SDS011;34315;50.150;11.070;2023-04-22T14:24:31;3.85;;;2.15;;
48522;SDS011;34315;50.150;11.070;2023-04-22T14:29:32;4.25;;;2.05;;
48522;SDS011;34315;50.150;11.070;2023-04-22T14:34:33;3.83;;;1.98;;
48522;SDS011;34315;50.150;11.070;2023-04-22T14:39:34;3.35;;;2.10;;
48522;SDS011;34315;50.150;11.070;2023-04-22T14:44:35;7.85;;;4.72;;
48522;SDS011;34315;50.150;11.070;2023-04-22T14:49:36;11.13;;;6.78;;
48522;SDS011;34315;50.150;11.070;2023-04-22T14:54:38;7.70;;;4.97;;
48522;SDS011;34315;50.150;11.070;2023-04-22T14:59:39;3.63;;;2.22;;
48522;SDS011;34315;50.150;11.070;2023-04-22T15:04:41;4.57;;;2.17;;
48522;SDS011;34315;50.150;11.070;2023-04-22T15:09:42;3.15;;;1.90;;
48522;SDS011;34315;50.150;11.070;2023-04-22T15:14:44;2.50;;;1.70;;
48522;SDS011;34315;50.150;11.070;2023-04-22T15:19:45;6.53;;;2.10;;
48522;SDS011;34315;50.150;11.070;2023-04-22T15:24:46;19.08;;;2.67;;
48522;SDS011;34315;50.150;11.070;2023-04-22T15:29:47;3.35;;;1.77;;
48522;SDS011;34315;50.150;11.070;2023-04-22T15:34:49;4.40;;;1.50;;
48522;SDS011;34315;50.150;11.070;2023-04-22T15:39:50;2.58;;;1.60;;
48522;SDS011;34315;50.150;11.070;2023-04-22T15:44:51;4.60;;;1.60;;
48522;SDS011;34315;50.150;11.070;2023-04-22T15:49:52;3.25;;;1.73;;
48522;SDS011;34315;50.150;11.070;2023-04-22T15:54:53;3.45;;;1.85;;
48522;SDS011;34315;50.150;11.070;2023-04-22T15:59:54;6.05;;;2.00;;
48522;SDS011;34315;50.150;11.070;2023-04-22T16:04:55;5.47;;;2.38;;
48522;SDS011;34315;50.150;11.070;2023-04-22T16:09:57;2.88;;;1.95;;
48522;SDS011;34315;50.150;11.070;2023-04-22T16:14:58;5.15;;;2.00;;
48522;SDS011;34315;50.150;11.070;2023-04-22T16:19:59;7.15;;;3.70;;
48522;SDS011;34315;50.150;11.070;2023-04-22T16:25:00;4.10;;;2.00;;
48522;SDS011;34315;50.150;11.070;2023-04-22T16:30:02;4.63;;;3.13;;
48522;SDS011;34315;50.150;11.070;2023-04-22T16:35:03;7.13;;;3.45;;
48522;SDS011;34315;50.150;11.070;2023-04-22T16:40:05;7.93;;;4.65;;
48522;SDS011;34315;50.150;11.070;2023-04-22T16:45:07;5.28;;;3.28;;
48522;SDS011;34315;50.150;11.070;2023-04-22T16:50:08;7.45;;;2.83;;
48522;SDS011;34315;50.150;11.070;2023-04-22T16:55:11;5.32;;;2.60;;
48522;SDS011;34315;50.150;11.070;2023-04-22T17:00:13;4.90;;;2.35;;
48522;SDS011;34315;50.150;11.070;2023-04-22T17:05:14;4.05;;;2.42;;
48522;SDS011;34315;50.150;11.070;2023-04-22T17:10:15;4.13;;;2.72;;
48522;SDS011;34315;50.150;11.070;2023-04-22T17:15:16;5.00;;;2.92;;
48522;SDS011;34315;50.150;11.070;2023-04-22T17:20:18;5.13;;;2.85;;
48522;SDS011;34315;50.150;11.070;2023-04-22T17:25:19;6.20;;;2.05;;
48522;SDS011;34315;50.150;11.070;2023-04-22T17:30:20;4.32;;;2.03;;
48522;SDS011;34315;50.150;11.070;2023-04-22T17:35:21;5.47;;;2.10;;
48522;SDS011;34315;50.150;11.070;2023-04-22T17:40:22;3.47;;;2.10;;
48522;SDS011;34315;50.150;11.070;2023-04-22T17:45:23;5.22;;;2.28;;
48522;SDS011;34315;50.150;11.070;2023-04-22T17:50:25;5.57;;;2.20;;
48522;SDS011;34315;50.150;11.070;2023-04-22T17:55:26;3.78;;;1.90;;
48522;SDS011;34315;50.150;11.070;2023-04-22T18:00:30;5.37;;;2.73;;
48522;SDS011;34315;50.150;11.070;2023-04-22T18:05:32;6.20;;;3.45;;
48522;SDS011;34315;50.150;11.070;2023-04-22T18:10:33;6.38;;;3.97;;
48522;SDS011;34315;50.150;11.070;2023-04-22T18:15:34;8.95;;;4.70;;
48522;SDS011;34315;50.150;11.070;2023-04-22T18:20:35;8.60;;;4.35;;
48522;SDS011;34315;50.150;11.070;2023-04-22T18:25:36;8.60;;;5.10;;
48522;SDS011;34315;50.150;11.070;2023-04-22T18:30:38;8.43;;;4.80;;
48522;SDS011;34315;50.150;11.070;2023-04-22T18:35:39;5.70;;;2.78;;
48522;SDS011;34315;50.150;11.070;2023-04-22T18:40:41;3.22;;;1.80;;
48522;SDS011;34315;50.150;11.070;2023-04-22T18:45:42;6.32;;;1.80;;
48522;SDS011;34315;50.150;11.070;2023-04-22T18:50:43;3.78;;;2.40;;
48522;SDS011;34315;50.150;11.070;2023-04-22T18:55:45;4.93;;;2.28;;
48522;SDS011;34315;50.150;11.070;2023-04-22T19:00:46;3.17;;;1.85;;
48522;SDS011;34315;50.150;11.070;2023-04-22T19:05:47;3.15;;;1.88;;
48522;SDS011;34315;50.150;11.070;2023-04-22T19:10:49;5.65;;;1.92;;
48522;SDS011;34315;50.150;11.070;2023-04-22T19:15:50;6.40;;;4.00;;
48522;SDS011;34315;50.150;11.070;2023-04-22T19:20:51;6.38;;;3.30;;
48522;SDS011;34315;50.150;11.070;2023-04-22T19:25:52;6.47;;;2.78;;
48522;SDS011;34315;50.150;11.070;2023-04-22T19:30:53;5.22;;;2.60;;
48522;SDS011;34315;50.150;11.070;2023-04-22T19:35:55;6.57;;;3.70;;
48522;SDS011;34315;50.150;11.070;2023-04-22T19:40:56;7.78;;;4.57;;
48522;SDS011;34315;50.150;11.070;2023-04-22T19:45:57;3.97;;;2.35;;
48522;SDS011;34315;50.150;11.070;2023-04-22T19:50:58;4.22;;;2.40;;
48522;SDS011;34315;50.150;11.070;2023-04-22T19:56:00;5.05;;;2.65;;
48522;SDS011;34315;50.150;11.070;2023-04-22T20:01:01;4.97;;;2.17;;
48522;SDS011;34315;50.150;11.070;2023-04-22T20:06:03;4.40;;;2.42;;
48522;SDS011;34315;50.150;11.070;2023-04-22T20:11:04;5.55;;;2.60;;
48522;SDS011;34315;50.150;11.070;2023-04-22T20:16:06;4.15;;;2.30;;
48522;SDS011;34315;50.150;11.070;2023-04-22T20:21:08;5.03;;;2.33;;
48522;SDS011;34315;50.150;11.070;2023-04-22T20:26:09;4.50;;;2.60;;
48522;SDS011;34315;50.150;11.070;2023-04-22T20:31:12;5.15;;;2.40;;
48522;SDS011;34315;50.150;11.070;2023-04-22T20:36:14;4.80;;;2.50;;
48522;SDS011;34315;50.150;11.070;2023-04-22T20:41:16;4.03;;;2.30;;
48522;SDS011;34315;50.150;11.070;2023-04-22T20:46:18;5.43;;;2.80;;
48522;SDS011;34315;50.150;11.070;2023-04-22T20:51:20;4.60;;;2.30;;
48522;SDS011;34315;50.150;11.070;2023-04-22T20:56:21;5.43;;;2.35;;
48522;SDS011;34315;50.150;11.070;2023-04-22T21:01:22;4.30;;;2.33;;
48522;SDS011;34315;50.150;11.070;2023-04-22T21:06:24;3.55;;;2.38;;
48522;SDS011;34315;50.150;11.070;2023-04-22T21:11:26;4.32;;;2.30;;
48522;SDS011;34315;50.150;11.070;2023-04-22T21:16:28;4.22;;;2.38;;
48522;SDS011;34315;50.150;11.070;2023-04-22T21:21:30;4.82;;;2.28;;
48522;SDS011;34315;50.150;11.070;2023-04-22T21:26:34;7.00;;;2.42;;
48522;SDS011;34315;50.150;11.070;2023-04-22T21:31:37;8.45;;;2.38;;
48522;SDS011;34315;50.150;11.070;2023-04-22T21:36:38;5.93;;;2.38;;
48522;SDS011;34315;50.150;11.070;2023-04-22T21:41:39;5.25;;;2.85;;
48522;SDS011;34315;50.150;11.070;2023-04-22T21:46:40;5.82;;;2.88;;
48522;SDS011;34315;50.150;11.070;2023-04-22T21:51:41;12.85;;;4.80;;
48522;SDS011;34315;50.150;11.070;2023-04-22T21:56:42;9.20;;;3.70;;
48522;SDS011;34315;50.150;11.070;2023-04-22T22:01:44;9.40;;;3.65;;
48522;SDS011;34315;50.150;11.070;2023-04-22T22:06:45;10.35;;;3.90;;
48522;SDS011;34315;50.150;11.070;2023-04-22T22:11:46;8.10;;;3.80;;
48522;SDS011;34315;50.150;11.070;2023-04-22T22:16:47;6.75;;;3.28;;
48522;SDS011;34315;50.150;11.070;2023-04-22T22:21:49;6.63;;;3.17;;
48522;SDS011;34315;50.150;11.070;2023-04-22T22:26:50;6.88;;;3.45;;
48522;SDS011;34315;50.150;11.070;2023-04-22T22:31:52;5.28;;;2.95;;
48522;SDS011;34315;50.150;11.070;2023-04-22T22:36:53;8.90;;;3.28;;
48522;SDS011;34315;50.150;11.070;2023-04-22T22:41:54;4.75;;;2.92;;
48522;SDS011;34315;50.150;11.070;2023-04-22T22:46:55;7.30;;;3.28;;
48522;SDS011;34315;50.150;11.070;2023-04-22T22:51:56;6.90;;;3.22;;
48522;SDS011;34315;50.150;11.070;2023-04-22T22:56:58;4.72;;;3.20;;
48522;SDS011;34315;50.150;11.070;2023-04-22T23:01:59;6.25;;;3.30;;
48522;SDS011;34315;50.150;11.070;2023-04-22T23:07:00;7.05;;;2.53;;
48522;SDS011;34315;50.150;11.070;2023-04-22T23:12:01;5.25;;;2.75;;
48522;SDS011;34315;50.150;11.070;2023-04-22T23:17:02;7.95;;;3.03;;
48522;SDS011;34315;50.150;11.070;2023-04-22T23:22:03;5.07;;;2.67;;
48522;SDS011;34315;50.150;11.070;2023-04-22T23:27:06;6.82;;;2.65;;
48522;SDS011;34315;50.150;11.070;2023-04-22T23:32:07;6.10;;;2.22;;
48522;SDS011;34315;50.150;11.070;2023-04-22T23:37:09;6.78;;;2.30;;
48522;SDS011;34315;50.150;11.070;2023-04-22T23:42:13;6.78;;;2.38;;
48522;SDS011;34315;50.150;11.070;2023-04-22T23:47:15;4.75;;;2.45;;
48522;SDS011;34315;50.150;11.070;2023-04-22T23:52:16;5.18;;;2.40;;
48522;SDS011;34315;50.150;11.070;2023-04-22T23:57:18;3.60;;;2.30;;
